Time;durP1;ratioP1;P1;durP2;ratioP2;P2;SDS_P1;SDS_P2;PMS_P1;PMS_P2;Temp;Humidity;BMP_temperature;BMP_pressure;BME280_temperature;BME280_humidity;BME280_pressure;Samples;Min_cycle;Max_cycle;Signal;HPM_P1;HPM_P2
2022/12/22 03:25:57;;;;;;;8.63;7.93;;;;;;;;;;5018687;28;20303;-84
2022/12/22 03:28:25;;;;;;;8.77;8.03;;;;;;;;;;5032059;28;20228;-86
2022/12/22 03:30:58;;;;;;;9.23;8.43;;;;;;;;;;5018144;28;20227;-85
2022/12/22 03:33:23;;;;;;;9.03;8.33;;;;;;;;;;5032974;28;20220;-85
2022/12/22 03:35:49;;;;;;;8.43;7.50;;;;;;;;;;5016398;28;20265;-87
2022/12/22 03:38:17;;;;;;;9.20;8.30;;;;;;;;;;5016979;28;20702;-87
2022/12/22 03:40:43;;;;;;;9.13;8.37;;;;;;;;;;5019336;28;20227;-86
2022/12/22 03:46:29;;;;;;;10.33;9.43;;;;;;;;;;5022567;28;20302;-84
2022/12/22 03:49:08;;;;;;;9.20;8.40;;;;;;;;;;5009434;28;20345;-85
2022/12/22 03:51:36;;;;;;;10.03;9.03;;;;;;;;;;4986639;28;20224;-85
2022/12/22 03:54:01;;;;;;;9.33;8.53;;;;;;;;;;5003579;28;20602;-84
2022/12/22 03:56:27;;;;;;;10.00;9.20;;;;;;;;;;5016409;28;20250;-86
2022/12/22 03:58:53;;;;;;;10.43;9.47;;;;;;;;;;5000852;28;20228;-86
2022/12/22 04:01:19;;;;;;;9.90;8.97;;;;;;;;;;5018624;28;20231;-85
2022/12/22 04:03:44;;;;;;;10.20;9.30;;;;;;;;;;4996782;28;20223;-84
2022/12/22 04:06:15;;;;;;;10.30;9.33;;;;;;;;;;5025932;28;20226;-86
2022/12/22 04:08:43;;;;;;;9.97;9.03;;;;;;;;;;5023980;28;20298;-85
2022/12/22 04:13:57;;;;;;;9.63;8.83;;;;;;;;;;5028762;28;20252;-83
2022/12/22 04:16:25;;;;;;;10.20;9.30;;;;;;;;;;5024542;28;20230;-84
2022/12/22 04:18:55;;;;;;;10.30;9.50;;;;;;;;;;5023462;28;20227;-85
2022/12/22 04:21:28;;;;;;;9.53;8.77;;;;;;;;;;5022566;28;20373;-85
2022/12/22 04:23:56;;;;;;;9.77;8.87;;;;;;;;;;5016662;28;20224;-84
2022/12/22 04:26:22;;;;;;;10.53;9.53;;;;;;;;;;5022888;28;20257;-85
2022/12/22 04:28:48;;;;;;;10.73;9.67;;;;;;;;;;5032559;28;20223;-85
2022/12/22 04:31:14;;;;;;;9.67;8.87;;;;;;;;;;5018833;28;20270;-85
2022/12/22 04:33:44;;;;;;;9.97;9.07;;;;;;;;;;5029560;28;20276;-84
2022/12/22 04:36:10;;;;;;;9.70;8.73;;;;;;;;;;5014879;28;20692;-84
2022/12/22 04:38:36;;;;;;;9.83;8.93;;;;;;;;;;5011564;28;20328;-83
2022/12/22 04:41:01;;;;;;;10.17;9.27;;;;;;;;;;5022730;28;20234;-86
2022/12/22 04:43:27;;;;;;;10.17;9.23;;;;;;;;;;5027637;28;20234;-87
2022/12/22 04:45:57;;;;;;;9.13;8.33;;;;;;;;;;5049602;28;20215;-85
2022/12/22 04:48:26;;;;;;;9.80;8.80;;;;;;;;;;5036064;28;20280;-85
2022/12/22 04:50:52;;;;;;;9.73;8.93;;;;;;;;;;5017981;28;20223;-86
2022/12/22 04:53:18;;;;;;;9.47;8.57;;;;;;;;;;5020806;28;20230;-84
2022/12/22 04:55:49;;;;;;;9.93;9.03;;;;;;;;;;5018663;28;20219;-86
2022/12/22 04:58:15;;;;;;;8.80;8.10;;;;;;;;;;5037722;28;20309;-84
2022/12/22 05:00:40;;;;;;;9.83;8.93;;;;;;;;;;5022129;28;20228;-85
2022/12/22 05:03:06;;;;;;;9.63;8.83;;;;;;;;;;5013665;28;20216;-86
2022/12/22 05:05:32;;;;;;;9.97;9.17;;;;;;;;;;5036700;28;20231;-86
2022/12/22 05:07:57;;;;;;;9.93;9.13;;;;;;;;;;5043579;28;20224;-84
2022/12/22 05:10:23;;;;;;;9.27;8.53;;;;;;;;;;5033142;28;20224;-84
2022/12/22 05:12:53;;;;;;;9.53;8.73;;;;;;;;;;5025497;28;20208;-84
2022/12/22 05:15:27;;;;;;;9.33;8.53;;;;;;;;;;5023088;28;20296;-84
2022/12/22 05:17:53;;;;;;;9.80;9.10;;;;;;;;;;5020414;28;20228;-84
2022/12/22 05:20:18;;;;;;;9.00;8.10;;;;;;;;;;5031942;28;20234;-84
2022/12/22 05:22:44;;;;;;;9.57;8.77;;;;;;;;;;5021697;28;20227;-83
2022/12/22 05:25:09;;;;;;;10.47;9.57;;;;;;;;;;5028931;28;20259;-84
2022/12/22 05:27:37;;;;;;;10.00;8.97;;;;;;;;;;5040960;28;20223;-84
2022/12/22 05:30:03;;;;;;;9.33;8.60;;;;;;;;;;5035891;28;20311;-83
2022/12/22 05:32:32;;;;;;;9.63;8.83;;;;;;;;;;5054420;28;20212;-83
2022/12/22 05:34:57;;;;;;;9.13;8.33;;;;;;;;;;5022082;28;20243;-84
2022/12/22 05:37:25;;;;;;;9.27;8.47;;;;;;;;;;5021910;28;20255;-83
2022/12/22 05:39:53;;;;;;;9.63;8.80;;;;;;;;;;5038948;28;20227;-84
2022/12/22 05:42:34;;;;;;;9.57;8.77;;;;;;;;;;5042850;28;20278;-86
2022/12/22 05:45:06;;;;;;;8.53;7.73;;;;;;;;;;5025408;28;20223;-84
2022/12/22 05:47:32;;;;;;;10.47;9.50;;;;;;;;;;5058002;28;20246;-85
2022/12/22 05:49:57;;;;;;;10.17;9.37;;;;;;;;;;5011056;28;20246;-85
2022/12/22 05:52:25;;;;;;;9.80;8.90;;;;;;;;;;5002916;28;20216;-87
2022/12/22 05:54:53;;;;;;;9.17;8.37;;;;;;;;;;5019823;28;20301;-83
2022/12/22 05:57:23;;;;;;;10.73;9.47;;;;;;;;;;5002826;28;20243;-86
2022/12/22 05:59:49;;;;;;;9.43;8.53;;;;;;;;;;5019780;28;20215;-86
2022/12/22 06:02:14;;;;;;;10.03;9.23;;;;;;;;;;5019524;28;20239;-85
2022/12/22 06:04:40;;;;;;;9.50;8.70;;;;;;;;;;5026231;28;20716;-87
2022/12/22 06:07:10;;;;;;;10.57;9.50;;;;;;;;;;5025159;28;20302;-85
2022/12/22 06:09:38;;;;;;;9.87;9.07;;;;;;;;;;5024913;28;20278;-85
2022/12/22 06:12:06;;;;;;;10.37;9.37;;;;;;;;;;5018302;28;20227;-84
2022/12/22 06:14:34;;;;;;;9.90;9.00;;;;;;;;;;5011574;28;20246;-85
2022/12/22 06:16:59;;;;;;;10.20;9.33;;;;;;;;;;5033121;28;20769;-85
2022/12/22 06:19:25;;;;;;;10.20;8.67;;;;;;;;;;5047274;28;20230;-86
2022/12/22 06:21:51;;;;;;;10.40;9.40;;;;;;;;;;5046171;28;20219;-82
2022/12/22 06:24:20;;;;;;;9.87;9.00;;;;;;;;;;5021497;28;20203;-85
2022/12/22 06:26:48;;;;;;;10.40;9.50;;;;;;;;;;5024814;28;20227;-83
2022/12/22 06:29:16;;;;;;;9.90;9.10;;;;;;;;;;5036206;28;20230;-85
2022/12/22 06:31:46;;;;;;;15.40;11.00;;;;;;;;;;5045320;28;20219;-84
2022/12/22 06:34:17;;;;;;;12.10;11.00;;;;;;;;;;5048866;28;20226;-82
2022/12/22 06:36:45;;;;;;;10.80;9.93;;;;;;;;;;5053184;28;20211;-86
2022/12/22 06:39:13;;;;;;;10.80;9.67;;;;;;;;;;5031396;28;20246;-86
2022/12/22 06:44:25;;;;;;;11.27;10.27;;;;;;;;;;5064720;28;20238;-83
2022/12/22 06:46:53;;;;;;;10.27;9.43;;;;;;;;;;5060098;28;20232;-82
2022/12/22 06:49:19;;;;;;;10.33;9.53;;;;;;;;;;5029084;28;20242;-83
2022/12/22 06:51:44;;;;;;;11.03;10.03;;;;;;;;;;5048671;28;20227;-83
2022/12/22 06:54:10;;;;;;;10.43;9.43;;;;;;;;;;5054685;28;20241;-85
2022/12/22 06:56:35;;;;;;;10.43;9.47;;;;;;;;;;5030476;28;20680;-83
2022/12/22 06:59:01;;;;;;;9.90;8.90;;;;;;;;;;5017890;28;20362;-83
2022/12/22 07:01:27;;;;;;;10.23;9.33;;;;;;;;;;5071377;22;20230;-83
2022/12/22 07:03:52;;;;;;;10.03;9.20;;;;;;;;;;5051677;28;20277;-85
2022/12/22 07:06:20;;;;;;;12.37;11.27;;;;;;;;;;5025827;28;20258;-84
2022/12/22 07:08:50;;;;;;;10.90;10.03;;;;;;;;;;5012164;28;20223;-84
2022/12/22 07:11:16;;;;;;;11.13;10.13;;;;;;;;;;5007040;28;20219;-83
2022/12/22 07:13:44;;;;;;;11.30;10.20;;;;;;;;;;5014528;28;20242;-82
2022/12/22 07:16:09;;;;;;;10.50;9.43;;;;;;;;;;5018841;28;20203;-85
2022/12/22 07:18:36;;;;;;;11.87;10.67;;;;;;;;;;5009079;28;20228;-84
2022/12/22 07:21:12;;;;;;;11.03;10.00;;;;;;;;;;5011882;28;20232;-84
2022/12/22 07:23:37;;;;;;;10.40;9.50;;;;;;;;;;5042204;28;20230;-84
2022/12/22 07:26:06;;;;;;;11.23;10.27;;;;;;;;;;5035790;28;20234;-84
2022/12/22 07:28:36;;;;;;;10.83;9.93;;;;;;;;;;5011751;28;20353;-84
2022/12/22 07:31:02;;;;;;;10.57;9.50;;;;;;;;;;5028657;28;20219;-83
2022/12/22 07:33:27;;;;;;;14.07;10.00;;;;;;;;;;5026020;28;20230;-83
2022/12/22 07:36:02;;;;;;;9.70;8.87;;;;;;;;;;5015141;28;20216;-83
2022/12/22 07:38:35;;;;;;;9.70;8.90;;;;;;;;;;5019846;28;20238;-85
2022/12/22 07:41:00;;;;;;;10.00;9.10;;;;;;;;;;5040384;28;20230;-83
2022/12/22 07:43:26;;;;;;;8.33;7.63;;;;;;;;;;5050402;28;20223;-83
2022/12/22 07:45:52;;;;;;;23.90;8.00;;;;;;;;;;5032795;28;20226;-84
2022/12/22 07:51:04;;;;;;;10.60;9.70;;;;;;;;;;5038964;28;20670;-86
2022/12/22 07:53:32;;;;;;;12.87;10.63;;;;;;;;;;5053193;28;20700;-83
2022/12/22 07:56:02;;;;;;;11.10;10.03;;;;;;;;;;5010136;28;20227;-83
2022/12/22 07:58:28;;;;;;;12.53;11.43;;;;;;;;;;5065351;28;20699;-83
2022/12/22 08:00:58;;;;;;;12.17;10.97;;;;;;;;;;5077060;28;20221;-84
2022/12/22 08:03:26;;;;;;;11.20;10.30;;;;;;;;;;5096286;28;20291;-84
2022/12/22 08:05:54;;;;;;;11.13;10.23;;;;;;;;;;5050254;28;20217;-84
2022/12/22 08:08:20;;;;;;;10.63;9.63;;;;;;;;;;5050723;28;20225;-84
2022/12/22 08:10:48;;;;;;;12.37;11.23;;;;;;;;;;5069918;28;20242;-84
2022/12/22 08:13:14;;;;;;;12.57;11.37;;;;;;;;;;5072689;28;20226;-83
2022/12/22 08:15:44;;;;;;;15.47;13.87;;;;;;;;;;5065571;28;20275;-82
2022/12/22 08:18:10;;;;;;;13.53;12.23;;;;;;;;;;5081848;28;20438;-82
2022/12/22 08:20:35;;;;;;;14.30;12.80;;;;;;;;;;5065744;28;20202;-82
2022/12/22 08:23:04;;;;;;;14.93;13.43;;;;;;;;;;5064812;28;20230;-82
2022/12/22 08:25:32;;;;;;;15.87;14.30;;;;;;;;;;5094821;28;20222;-82
2022/12/22 08:27:58;;;;;;;14.80;13.30;;;;;;;;;;5072823;28;20234;-84
2022/12/22 08:30:23;;;;;;;13.40;11.93;;;;;;;;;;5051938;28;20222;-86
2022/12/22 08:32:49;;;;;;;11.73;10.73;;;;;;;;;;5054781;28;20284;-83
2022/12/22 08:35:15;;;;;;;11.77;10.77;;;;;;;;;;5082642;28;20219;-84
2022/12/22 08:37:46;;;;;;;20.00;11.57;;;;;;;;;;5055876;28;20229;-83
2022/12/22 08:40:15;;;;;;;10.43;9.33;;;;;;;;;;5084506;28;20681;-84
2022/12/22 08:42:43;;;;;;;52.63;11.80;;;;;;;;;;5101703;28;20220;-87
2022/12/22 08:45:10;;;;;;;10.27;9.47;;;;;;;;;;5058042;28;20249;-87
2022/12/22 08:47:40;;;;;;;9.40;8.60;;;;;;;;;;5096921;28;20223;-84
2022/12/22 08:50:08;;;;;;;10.50;9.50;;;;;;;;;;5075583;28;20233;-84
2022/12/22 08:53:09;;;;;;;11.17;10.23;;;;;;;;;;5084163;28;20227;-84
2022/12/22 08:56:15;;;;;;;12.53;11.33;;;;;;;;;;5023171;28;20713;-83
2022/12/22 08:58:46;;;;;;;12.73;11.47;;;;;;;;;;5083965;28;20632;-82
2022/12/22 09:01:18;;;;;;;13.20;11.90;;;;;;;;;;5059044;28;20240;-82
2022/12/22 09:04:02;;;;;;;13.50;12.27;;;;;;;;;;5068131;28;20559;-81
2022/12/22 09:06:31;;;;;;;13.37;12.07;;;;;;;;;;5064735;28;20969;-80
2022/12/22 09:09:01;;;;;;;12.83;11.63;;;;;;;;;;5046297;28;20671;-83
2022/12/22 09:11:29;;;;;;;21.00;19.00;;;;;;;;;;5033801;28;20222;-83
2022/12/22 09:13:57;;;;;;;18.80;17.07;;;;;;;;;;5042618;28;20219;-82
2022/12/22 09:16:23;;;;;;;20.33;18.43;;;;;;;;;;5059114;28;20271;-85
2022/12/22 09:18:49;;;;;;;20.80;18.87;;;;;;;;;;5062024;28;20222;-83
2022/12/22 09:21:21;;;;;;;17.33;15.63;;;;;;;;;;5053981;28;20686;-84
2022/12/22 09:23:53;;;;;;;15.90;14.40;;;;;;;;;;5040917;28;20229;-83
2022/12/22 09:26:22;;;;;;;16.40;14.93;;;;;;;;;;5053838;28;20711;-82
2022/12/22 09:28:48;;;;;;;18.27;16.37;;;;;;;;;;5051695;28;20214;-82
2022/12/22 09:31:16;;;;;;;18.13;16.40;;;;;;;;;;5038968;28;20231;-82
2022/12/22 09:34:04;;;;;;;15.87;14.27;;;;;;;;;;5059791;28;20819;-80
2022/12/22 09:36:30;;;;;;;16.27;14.70;;;;;;;;;;5036085;28;20215;-80
2022/12/22 09:38:59;;;;;;;14.23;12.93;;;;;;;;;;5066771;28;20225;-81
2022/12/22 09:41:46;;;;;;;15.63;14.03;;;;;;;;;;5043507;28;20239;-82
2022/12/22 09:44:26;;;;;;;15.13;13.77;;;;;;;;;;5066001;28;20223;-80
2022/12/22 09:46:54;;;;;;;35.97;32.07;;;;;;;;;;5063745;28;20214;-82
2022/12/22 09:49:21;;;;;;;19.17;17.17;;;;;;;;;;5012107;28;20227;-82
2022/12/22 09:51:59;;;;;;;17.70;16.00;;;;;;;;;;5040576;28;20365;-82
2022/12/22 09:54:25;;;;;;;16.57;14.93;;;;;;;;;;5062381;28;21542;-82
2022/12/22 09:56:50;;;;;;;15.47;14.07;;;;;;;;;;5055411;28;20224;-83
2022/12/22 09:59:18;;;;;;;15.90;14.40;;;;;;;;;;5044332;28;20240;-82
2022/12/22 10:02:02;;;;;;;15.67;14.23;;;;;;;;;;5055461;28;20286;-81
2022/12/22 10:05:10;;;;;;;13.97;12.83;;;;;;;;;;5085281;28;20227;-82
2022/12/22 10:07:46;;;;;;;16.53;14.93;;;;;;;;;;4960813;28;20230;-83
2022/12/22 10:10:27;;;;;;;15.37;13.97;;;;;;;;;;4991743;28;20214;-82
2022/12/22 10:13:00;;;;;;;15.83;14.33;;;;;;;;;;5057907;28;20222;-83
2022/12/22 10:15:36;;;;;;;18.43;16.53;;;;;;;;;;5043048;28;20279;-83
2022/12/22 10:18:16;;;;;;;18.13;16.43;;;;;;;;;;5056644;28;20619;-84
2022/12/22 10:20:44;;;;;;;18.53;16.63;;;;;;;;;;5061642;28;20253;-83
2022/12/22 10:23:28;;;;;;;17.00;15.40;;;;;;;;;;5037391;28;20249;-82
2022/12/22 10:25:59;;;;;;;16.87;15.17;;;;;;;;;;5054601;28;20218;-82
2022/12/22 10:28:31;;;;;;;18.43;16.53;;;;;;;;;;5091435;28;20238;-82
2022/12/22 10:31:16;;;;;;;17.80;16.00;;;;;;;;;;5034061;28;20620;-82
2022/12/22 10:33:43;;;;;;;17.43;15.73;;;;;;;;;;5059081;28;20223;-82
2022/12/22 10:36:09;;;;;;;16.97;15.43;;;;;;;;;;5041235;28;20222;-82
2022/12/22 10:38:40;;;;;;;18.57;16.27;;;;;;;;;;5055406;28;20226;-82
2022/12/22 10:41:22;;;;;;;16.87;15.27;;;;;;;;;;5032815;28;20253;-83
2022/12/22 10:43:55;;;;;;;18.53;16.80;;;;;;;;;;5057638;28;20222;-82
2022/12/22 10:46:45;;;;;;;17.50;15.80;;;;;;;;;;5039287;28;20233;-82
2022/12/22 10:49:22;;;;;;;34.03;26.50;;;;;;;;;;5073740;28;20209;-83
2022/12/22 10:51:55;;;;;;;21.77;19.47;;;;;;;;;;5080096;28;20234;-83
2022/12/22 10:54:31;;;;;;;18.63;16.83;;;;;;;;;;5064677;28;20228;-84
2022/12/22 10:57:02;;;;;;;23.03;20.53;;;;;;;;;;5059807;28;20698;-82
2022/12/22 10:59:31;;;;;;;20.53;18.43;;;;;;;;;;5046935;28;20222;-82
2022/12/22 11:02:22;;;;;;;19.33;17.33;;;;;;;;;;5039961;28;20227;-83
2022/12/22 11:04:56;;;;;;;18.73;16.87;;;;;;;;;;5047000;28;20225;-83
2022/12/22 11:07:21;;;;;;;20.03;17.93;;;;;;;;;;5049436;28;20286;-84
2022/12/22 11:09:47;;;;;;;20.30;18.33;;;;;;;;;;5067969;28;20255;-83
2022/12/22 11:12:31;;;;;;;19.23;17.33;;;;;;;;;;5050097;28;20949;-82
2022/12/22 11:15:16;;;;;;;20.07;18.10;;;;;;;;;;5082996;28;20229;-82
2022/12/22 11:18:10;;;;;;;19.77;17.77;;;;;;;;;;5050970;28;20258;-82
2022/12/22 11:20:35;;;;;;;19.07;17.37;;;;;;;;;;5065288;28;20218;-83
2022/12/22 11:23:48;;;;;;;19.50;17.70;;;;;;;;;;5091886;28;20248;-83
2022/12/22 11:26:28;;;;;;;19.50;17.53;;;;;;;;;;5054903;28;20244;-85
2022/12/22 11:29:03;;;;;;;20.30;18.37;;;;;;;;;;5062722;28;20227;-86
2022/12/22 11:32:05;;;;;;;20.67;18.53;;;;;;;;;;5068841;28;20287;-82
2022/12/22 11:34:49;;;;;;;20.13;18.00;;;;;;;;;;5093845;28;20271;-85
2022/12/22 11:37:41;;;;;;;20.93;18.93;;;;;;;;;;5080597;28;20217;-84
2022/12/22 11:40:13;;;;;;;18.97;17.23;;;;;;;;;;5074809;28;20231;-84
2022/12/22 11:43:00;;;;;;;18.93;16.97;;;;;;;;;;5072170;28;20303;-85
2022/12/22 11:46:14;;;;;;;20.50;18.50;;;;;;;;;;5069788;28;20394;-85
2022/12/22 11:49:04;;;;;;;19.50;17.57;;;;;;;;;;4963716;28;20229;-82
2022/12/22 11:51:44;;;;;;;20.00;18.10;;;;;;;;;;4964760;28;20740;-83
2022/12/22 11:54:50;;;;;;;19.27;17.33;;;;;;;;;;5045365;28;20249;-85
2022/12/22 11:57:25;;;;;;;20.17;18.23;;;;;;;;;;5016666;28;20316;-85
2022/12/22 12:00:07;;;;;;;21.00;19.00;;;;;;;;;;5013600;28;20756;-85
2022/12/22 12:02:54;;;;;;;20.47;18.57;;;;;;;;;;5060046;28;20233;-84
2022/12/22 12:06:00;;;;;;;21.10;19.23;;;;;;;;;;5068907;28;20226;-86
2022/12/22 12:08:41;;;;;;;22.40;20.10;;;;;;;;;;5071856;28;20219;-84
2022/12/22 12:11:17;;;;;;;23.47;21.13;;;;;;;;;;5047424;28;20209;-85
2022/12/22 12:14:07;;;;;;;23.70;21.30;;;;;;;;;;5070880;28;20225;-85
2022/12/22 12:16:38;;;;;;;21.33;19.23;;;;;;;;;;5064181;28;20666;-84
2022/12/22 12:19:27;;;;;;;22.80;20.63;;;;;;;;;;5075301;28;20257;-84
2022/12/22 12:21:59;;;;;;;28.05;25.38;;;;;;;;;;5076471;28;20461;-84
2022/12/22 12:24:48;;;;;;;23.60;21.40;;;;;;;;;;5075038;28;20748;-82
2022/12/22 12:27:40;;;;;;;22.50;20.30;;;;;;;;;;5072697;28;20285;-81
2022/12/22 12:30:16;;;;;;;21.57;19.53;;;;;;;;;;5063026;28;20226;-83
2022/12/22 12:32:47;;;;;;;21.90;19.90;;;;;;;;;;5046736;28;20264;-80
2022/12/22 12:35:36;;;;;;;23.20;20.73;;;;;;;;;;5060684;28;20767;-83
2022/12/22 12:38:11;;;;;;;20.50;18.50;;;;;;;;;;5082463;28;20230;-82
2022/12/22 12:41:05;;;;;;;22.37;20.07;;;;;;;;;;5062884;28;20685;-82
2022/12/22 12:43:36;;;;;;;21.50;19.30;;;;;;;;;;5055116;28;20219;-83
2022/12/22 12:46:37;;;;;;;23.90;21.40;;;;;;;;;;5043147;28;20245;-83
2022/12/22 12:49:04;;;;;;;24.50;22.10;;;;;;;;;;5101342;28;20215;-80
2022/12/22 12:51:47;;;;;;;24.13;21.53;;;;;;;;;;5066749;28;20573;-84
2022/12/22 12:54:30;;;;;;;25.00;22.60;;;;;;;;;;5089762;28;20232;-83
2022/12/22 12:57:00;;;;;;;23.53;21.13;;;;;;;;;;5066789;28;20227;-81
2022/12/22 13:00:12;;;;;;;24.50;22.00;;;;;;;;;;5040743;28;20232;-84
2022/12/22 13:02:38;;;;;;;25.20;22.77;;;;;;;;;;5059343;28;20222;-85
2022/12/22 13:05:10;;;;;;;25.43;22.37;;;;;;;;;;5037096;28;20252;-83
2022/12/22 13:08:05;;;;;;;29.37;26.27;;;;;;;;;;5076114;28;20221;-85
2022/12/22 13:10:32;;;;;;;28.17;25.37;;;;;;;;;;5078088;28;20219;-80
2022/12/22 13:13:02;;;;;;;26.87;24.03;;;;;;;;;;5065363;28;20237;-83
2022/12/22 13:15:32;;;;;;;25.43;23.07;;;;;;;;;;5083613;28;20279;-83
2022/12/22 13:17:58;;;;;;;26.43;23.80;;;;;;;;;;5097590;28;20234;-81
2022/12/22 13:20:32;;;;;;;23.80;20.97;;;;;;;;;;5075597;28;20310;-84
2022/12/22 13:23:01;;;;;;;22.27;19.33;;;;;;;;;;5057773;28;20241;-82
2022/12/22 13:25:44;;;;;;;21.50;19.50;;;;;;;;;;5070266;28;20225;-85
2022/12/22 13:28:19;;;;;;;19.33;17.23;;;;;;;;;;5089740;28;20222;-82
2022/12/22 13:30:48;;;;;;;21.27;18.10;;;;;;;;;;5057460;28;20298;-84
2022/12/22 13:33:17;;;;;;;18.53;16.67;;;;;;;;;;5068888;28;20226;-84
2022/12/22 13:35:43;;;;;;;17.63;15.87;;;;;;;;;;5071431;28;20229;-86
2022/12/22 13:38:28;;;;;;;17.57;15.87;;;;;;;;;;5066315;28;20286;-83
2022/12/22 13:40:57;;;;;;;16.93;15.13;;;;;;;;;;5092496;28;20645;-83
2022/12/22 13:43:22;;;;;;;15.07;13.53;;;;;;;;;;5052606;28;20226;-84
2022/12/22 13:45:50;;;;;;;14.77;12.53;;;;;;;;;;5062040;28;20229;-85
2022/12/22 13:48:39;;;;;;;13.80;12.07;;;;;;;;;;5073728;28;20214;-83
2022/12/22 13:51:23;;;;;;;13.97;12.13;;;;;;;;;;5075294;28;21996;-81
2022/12/22 13:54:10;;;;;;;13.03;11.23;;;;;;;;;;5090758;28;20234;-85
2022/12/22 13:56:40;;;;;;;12.27;11.07;;;;;;;;;;5080779;28;20225;-84
2022/12/22 13:59:17;;;;;;;12.83;11.53;;;;;;;;;;5070897;28;20223;-83
2022/12/22 14:02:15;;;;;;;12.13;10.33;;;;;;;;;;5067927;28;20276;-82
2022/12/22 14:04:45;;;;;;;14.70;13.17;;;;;;;;;;5051436;28;20246;-86
2022/12/22 14:07:16;;;;;;;14.00;12.60;;;;;;;;;;5061856;28;20750;-87
2022/12/22 14:09:48;;;;;;;13.53;12.13;;;;;;;;;;5060686;28;20315;-85
2022/12/22 14:12:25;;;;;;;17.23;13.23;;;;;;;;;;5081828;28;20313;-82
2022/12/22 14:14:54;;;;;;;14.17;11.73;;;;;;;;;;5080024;28;20230;-83
2022/12/22 14:17:28;;;;;;;14.40;12.20;;;;;;;;;;5054778;28;20218;-84
2022/12/22 14:19:56;;;;;;;13.73;11.50;;;;;;;;;;5077284;28;20229;-82
2022/12/22 14:22:28;;;;;;;14.53;11.33;;;;;;;;;;5059748;28;20314;-82
2022/12/22 14:24:59;;;;;;;11.20;9.70;;;;;;;;;;5079023;28;20230;-82
2022/12/22 14:27:34;;;;;;;13.00;10.43;;;;;;;;;;5082298;28;20242;-84
2022/12/22 14:30:01;;;;;;;11.07;9.83;;;;;;;;;;5080515;28;20321;-85
2022/12/22 14:32:41;;;;;;;12.70;10.40;;;;;;;;;;5059519;28;20222;-84
2022/12/22 14:35:20;;;;;;;11.00;9.73;;;;;;;;;;5057876;28;20268;-85
2022/12/22 14:37:54;;;;;;;10.97;9.80;;;;;;;;;;5081023;28;20233;-87
2022/12/22 14:40:31;;;;;;;9.67;8.67;;;;;;;;;;5053776;28;20300;-85
2022/12/22 14:42:57;;;;;;;11.87;9.70;;;;;;;;;;5091025;28;20221;-84
2022/12/22 14:45:24;;;;;;;11.30;9.87;;;;;;;;;;5065220;28;20222;-85
2022/12/22 14:47:50;;;;;;;15.13;10.80;;;;;;;;;;5060465;28;20216;-83
2022/12/22 14:50:19;;;;;;;15.13;11.10;;;;;;;;;;5063442;28;20286;-83
2022/12/22 14:53:05;;;;;;;16.47;12.50;;;;;;;;;;5063148;28;20252;-84
2022/12/22 14:55:37;;;;;;;13.33;11.37;;;;;;;;;;5056714;28;20251;-86
2022/12/22 14:58:09;;;;;;;15.27;9.03;;;;;;;;;;5071956;28;20267;-85
2022/12/22 15:00:38;;;;;;;10.97;9.57;;;;;;;;;;5097185;28;20581;-87
2022/12/22 15:03:31;;;;;;;13.50;11.07;;;;;;;;;;5048995;28;20317;-86
2022/12/22 15:06:26;;;;;;;13.60;12.40;;;;;;;;;;5072562;28;20268;-83
2022/12/22 15:09:14;;;;;;;13.90;11.97;;;;;;;;;;5077795;28;20219;-82
2022/12/22 15:11:43;;;;;;;13.97;11.97;;;;;;;;;;5082439;28;20656;-83
2022/12/22 15:14:11;;;;;;;14.67;12.97;;;;;;;;;;5053014;28;20222;-83
2022/12/22 15:16:36;;;;;;;14.70;13.30;;;;;;;;;;5058335;28;20253;-82
2022/12/22 15:19:04;;;;;;;17.07;15.47;;;;;;;;;;5076177;28;20221;-83
2022/12/22 15:21:30;;;;;;;19.20;17.27;;;;;;;;;;5049095;28;20225;-83
2022/12/22 15:23:58;;;;;;;20.43;17.37;;;;;;;;;;5064386;28;20216;-83
2022/12/22 15:26:24;;;;;;;19.10;16.80;;;;;;;;;;5058674;28;20222;-82
2022/12/22 15:28:49;;;;;;;23.50;20.67;;;;;;;;;;5068212;28;20251;-81
2022/12/22 15:31:18;;;;;;;18.63;16.03;;;;;;;;;;5072917;28;20236;-83
2022/12/22 15:33:43;;;;;;;34.17;26.17;;;;;;;;;;5033418;28;20210;-82
2022/12/22 15:36:10;;;;;;;46.57;34.80;;;;;;;;;;5068258;28;20229;-83
2022/12/22 15:38:37;;;;;;;57.70;35.60;;;;;;;;;;5027350;28;20231;-81
2022/12/22 15:41:07;;;;;;;77.50;48.50;;;;;;;;;;5100128;28;20238;-82
2022/12/22 15:43:36;;;;;;;65.73;41.93;;;;;;;;;;5037900;28;20229;-81
2022/12/22 15:46:05;;;;;;;39.23;28.47;;;;;;;;;;5082508;28;20210;-81
2022/12/22 15:48:34;;;;;;;38.20;26.13;;;;;;;;;;5057217;28;20263;-82
2022/12/22 15:51:03;;;;;;;37.77;27.47;;;;;;;;;;5059385;28;20239;-83
2022/12/22 15:53:31;;;;;;;31.57;25.17;;;;;;;;;;5053544;28;20301;-82
2022/12/22 15:55:59;;;;;;;31.20;24.00;;;;;;;;;;5078373;28;20245;-82
2022/12/22 15:58:37;;;;;;;27.90;22.97;;;;;;;;;;5078582;28;20230;-81
2022/12/22 16:01:02;;;;;;;24.10;19.43;;;;;;;;;;5056097;28;20843;-81
2022/12/22 16:03:28;;;;;;;22.90;18.63;;;;;;;;;;5063696;28;20245;-85
2022/12/22 16:05:54;;;;;;;14.53;12.87;;;;;;;;;;5075904;28;20226;-82
2022/12/22 16:08:24;;;;;;;17.00;12.53;;;;;;;;;;5077871;28;20679;-83
2022/12/22 16:10:52;;;;;;;17.33;13.90;;;;;;;;;;5063749;28;20225;-84
2022/12/22 16:13:21;;;;;;;16.03;14.37;;;;;;;;;;5045157;28;20218;-85
2022/12/22 16:15:51;;;;;;;16.63;14.83;;;;;;;;;;5063203;28;20217;-83
2022/12/22 16:18:17;;;;;;;15.97;14.17;;;;;;;;;;5071926;28;20353;-82
2022/12/22 16:20:42;;;;;;;15.67;14.03;;;;;;;;;;5067376;28;20243;-84
2022/12/22 16:23:13;;;;;;;18.60;16.17;;;;;;;;;;5042181;28;20221;-83
2022/12/22 16:25:44;;;;;;;16.40;13.37;;;;;;;;;;5103850;28;20766;-80
2022/12/22 16:28:15;;;;;;;14.90;13.40;;;;;;;;;;5076151;28;20261;-82
2022/12/22 16:30:41;;;;;;;15.03;13.57;;;;;;;;;;5072326;28;20989;-81
2022/12/22 16:33:09;;;;;;;13.83;12.37;;;;;;;;;;5070428;28;20222;-83
2022/12/22 16:35:35;;;;;;;13.40;12.03;;;;;;;;;;5074604;28;20222;-81
2022/12/22 16:38:04;;;;;;;11.90;10.73;;;;;;;;;;5099748;28;20233;-83
2022/12/22 16:40:30;;;;;;;9.50;8.50;;;;;;;;;;5068667;28;20230;-82
2022/12/22 16:43:01;;;;;;;9.70;8.03;;;;;;;;;;5065915;28;20226;-82
2022/12/22 16:45:30;;;;;;;8.20;7.40;;;;;;;;;;5082411;28;20225;-82
2022/12/22 16:48:05;;;;;;;10.13;8.53;;;;;;;;;;5047287;28;20219;-82
2022/12/22 16:50:33;;;;;;;8.53;7.67;;;;;;;;;;5072989;28;20519;-83
2022/12/22 16:53:01;;;;;;;8.73;7.53;;;;;;;;;;5063413;28;20237;-86
2022/12/22 16:55:27;;;;;;;8.07;7.27;;;;;;;;;;5073944;28;20235;-85
2022/12/22 16:57:53;;;;;;;8.63;7.83;;;;;;;;;;5036834;28;21023;-82
2022/12/22 17:00:25;;;;;;;8.43;7.63;;;;;;;;;;5043630;28;20779;-83
2022/12/22 17:02:55;;;;;;;8.77;7.43;;;;;;;;;;5042878;28;20675;-80
2022/12/22 17:05:32;;;;;;;10.33;7.83;;;;;;;;;;5068849;28;20284;-82
2022/12/22 17:08:30;;;;;;;8.83;7.93;;;;;;;;;;5072493;28;20228;-77
2022/12/22 17:10:57;;;;;;;8.23;6.67;;;;;;;;;;5053796;28;20631;-81
2022/12/22 17:13:25;;;;;;;11.10;7.60;;;;;;;;;;5044263;28;20226;-82
2022/12/22 17:15:53;;;;;;;9.93;7.90;;;;;;;;;;5038552;28;20772;-84
2022/12/22 17:18:20;;;;;;;14.60;10.30;;;;;;;;;;5040154;28;20229;-84
2022/12/22 17:20:49;;;;;;;24.07;17.03;;;;;;;;;;5028113;28;20225;-85
2022/12/22 17:23:48;;;;;;;23.50;16.57;;;;;;;;;;5040359;28;20220;-82
2022/12/22 17:26:17;;;;;;;54.40;28.27;;;;;;;;;;5089559;28;20222;-81
2022/12/22 17:28:46;;;;;;;70.93;38.63;;;;;;;;;;5029163;28;20691;-85
2022/12/22 17:31:15;;;;;;;53.70;41.13;;;;;;;;;;5069361;28;20683;-84
2022/12/22 17:33:41;;;;;;;25.50;14.53;;;;;;;;;;5066675;28;20214;-84
2022/12/22 17:36:14;;;;;;;12.63;9.50;;;;;;;;;;5053663;28;20225;-81
2022/12/22 17:38:39;;;;;;;14.67;10.13;;;;;;;;;;5069724;28;20230;-82
2022/12/22 17:41:10;;;;;;;12.10;9.33;;;;;;;;;;5072641;28;20261;-82
2022/12/22 17:43:40;;;;;;;14.63;10.67;;;;;;;;;;5044041;28;20234;-83
2022/12/22 17:46:15;;;;;;;11.27;10.10;;;;;;;;;;5052551;28;20222;-83
2022/12/22 17:48:46;;;;;;;13.90;9.50;;;;;;;;;;5075714;28;20226;-78
2022/12/22 17:51:17;;;;;;;12.10;8.27;;;;;;;;;;5061097;28;20297;-84
2022/12/22 17:53:45;;;;;;;13.87;8.90;;;;;;;;;;5061793;28;20278;-83
2022/12/22 17:56:23;;;;;;;13.27;8.20;;;;;;;;;;5058271;28;20223;-83
2022/12/22 17:58:48;;;;;;;9.83;8.33;;;;;;;;;;5068657;28;20234;-85
2022/12/22 18:01:37;;;;;;;11.60;9.20;;;;;;;;;;5043195;28;20288;-83
2022/12/22 18:04:03;;;;;;;11.50;9.87;;;;;;;;;;5084610;28;20723;-84
2022/12/22 18:06:33;;;;;;;11.60;9.70;;;;;;;;;;5045103;28;20221;-82
2022/12/22 18:09:01;;;;;;;12.40;9.80;;;;;;;;;;5062367;28;20211;-81
2022/12/22 18:11:26;;;;;;;12.20;9.43;;;;;;;;;;5078450;28;20229;-82
2022/12/22 18:13:53;;;;;;;11.63;9.33;;;;;;;;;;5067412;28;20219;-84
2022/12/22 18:16:21;;;;;;;11.33;8.80;;;;;;;;;;5048372;28;20218;-84
2022/12/22 18:18:49;;;;;;;14.17;11.53;;;;;;;;;;5046324;28;20235;-82
2022/12/22 18:21:19;;;;;;;25.30;17.00;;;;;;;;;;5036553;28;20637;-82
2022/12/22 18:23:45;;;;;;;15.00;13.30;;;;;;;;;;5060117;28;20235;-83
2022/12/22 18:26:29;;;;;;;30.50;23.30;;;;;;;;;;5048606;28;20268;-83
2022/12/22 18:29:05;;;;;;;20.10;15.33;;;;;;;;;;5071398;28;20210;-83